M/V Raymond M. — WDC4224 — position and weather

sailwx.info

Track history (hours):
 
Tides and Currents Weather Stations Pressure Air Temp Water Temp Dewpoint Dewpoint Depression Visibility Wind Speed Wind Dir Waves Ship Positions

M/V Raymond M.

Owner: RM Leasing, Clute, TX. More information available from US FCC via Universal Licensing System and Coast Guard Vessel Documentation Center.

Last reported at 2016-Jun-25 06:33 UTC. Time now 2016-Jun-25 12:26 UTC.
Position N 29°37' W 092°17'.

; draft 2.2 m.

MMSI: 367021170.

Date/timePositionNaut miles runAvg speedWind from/ knotsBaromVisibWave heightAir tempDewpointWater temp
2016-Jun-25 06:33N 29°37' W 092°17'10 9.6
2016-Jun-25 05:33N 29°45' W 092°12'2 1.6
2016-Jun-25 04:33N 29°47' W 092°11'0 0.0
2016-Jun-25 03:33N 29°47' W 092°11'0 0.0
2016-Jun-25 02:33N 29°47' W 092°11'0 0.0
2016-Jun-25 01:33N 29°47' W 092°11'0 0.0
2016-Jun-25 00:33N 29°47' W 092°11'0 0.0
2016-Jun-24 08:33N 29°47' W 092°11'0 0.0
2016-Jun-24 07:33N 29°47' W 092°11'0 0.0
2016-Jun-24 04:33N 29°47' W 092°11'0 0.0
2016-Jun-24 03:33N 29°47' W 092°11'3 2.5
2016-Jun-24 02:33N 29°45' W 092°13'10 9.8
2016-Jun-24 01:33N 29°36' W 092°18'0 0.0
2016-Jun-23 12:29N 29°36' W 092°18'9 9.9
2016-Jun-23 11:33N 29°44' W 092°14'4 3.6
2016-Jun-23 10:33N 29°47' W 092°11'0 0.0
2016-Jun-23 09:34N 29°47' W 092°11'5 5.2
2016-Jun-23 08:34N 29°43' W 092°15'10 9.8
2016-Jun-23 07:33N 29°33' W 092°18'2 0.1
2016-Jun-22 14:20N 29°35' W 092°18'810.1
2016-Jun-22 13:33N 29°43' W 092°15'5 5.1
2016-Jun-22 12:33N 29°47' W 092°11'0 0.1
2016-Jun-22 11:33N 29°47' W 092°11'0 0.0
2016-Jun-22 10:33N 29°47' W 092°11'0 0.0
2016-Jun-22 09:33N 29°47' W 092°11'0 0.0
2016-Jun-22 08:33N 29°47' W 092°11'0 0.0
2016-Jun-22 07:33N 29°47' W 092°11'0 0.0
2016-Jun-22 06:34N 29°47' W 092°11'0 0.0
2016-Jun-22 05:33N 29°47' W 092°11'0 0.0
2016-Jun-22 04:33N 29°47' W 092°11'0 0.0
2016-Jun-22 03:33N 29°47' W 092°11'0 0.0
2016-Jun-22 02:33N 29°47' W 092°11'0 0.0
2016-Jun-22 01:33N 29°47' W 092°11'0 0.0
2016-Jun-22 00:33N 29°47' W 092°11'0 0.0
2016-Jun-21 23:33N 29°47' W 092°11'0 0.0
2016-Jun-21 22:33N 29°47' W 092°11'0 0.0
2016-Jun-21 21:33N 29°47' W 092°11'0 0.3
2016-Jun-21 20:33N 29°47' W 092°11'0 0.0
2016-Jun-21 19:33N 29°47' W 092°11'0 0.0
2016-Jun-21 18:33N 29°47' W 092°11'0 0.1
2016-Jun-21 16:33N 29°47' W 092°11'1212.1
2016-Jun-21 15:33N 29°36' W 092°17'3 0.3
2016-Jun-21 05:33N 29°39' W 092°16'9 9.2
2016-Jun-21 04:33N 29°47' W 092°11'0 0.0
2016-Jun-21 03:33N 29°47' W 092°11'0 0.0
2016-Jun-21 02:33N 29°47' W 092°11'0 0.0
2016-Jun-21 01:33N 29°47' W 092°11'0 0.0
2016-Jun-21 00:33N 29°47' W 092°11'0 0.0
2016-Jun-20 23:33N 29°47' W 092°11'0 0.0
2016-Jun-20 22:33N 29°47' W 092°11'0 0.0
2016-Jun-20 21:30N 29°47' W 092°11'7 7.6
2016-Jun-20 20:33N 29°41' W 092°15'8 0.5
2016-Jun-20 03:29N 29°33' W 092°18'910.2
2016-Jun-20 02:33N 29°42' W 092°15'6 6.1
2016-Jun-20 01:33N 29°47' W 092°11'3 0.3
2016-Jun-19 17:33N 29°45' W 092°13'1010.0
2016-Jun-19 16:33N 29°36' W 092°18'0 0.0
2016-Jun-18 21:13N 29°35' W 092°18'710.0
2016-Jun-18 20:33N 29°41' W 092°15'6 6.3
2016-Jun-18 19:33N 29°47' W 092°11'0 0.0
2016-Jun-18 18:33N 29°47' W 092°11'0 0.0
2016-Jun-18 17:34N 29°47' W 092°11'0 0.0
2016-Jun-18 16:33N 29°47' W 092°11'0 0.0
2016-Jun-18 15:33N 29°47' W 092°11'0 0.0
2016-Jun-18 14:33N 29°47' W 092°11'0 0.2
2016-Jun-18 13:33N 29°47' W 092°11'0 0.0
2016-Jun-18 12:34N 29°47' W 092°11'0 0.0
2016-Jun-18 11:33N 29°47' W 092°11'0 0.0
2016-Jun-18 10:33N 29°47' W 092°11'0 0.0
2016-Jun-18 09:32N 29°47' W 092°11'0 0.2
2016-Jun-18 08:33N 29°47' W 092°11'0 0.0
2016-Jun-18 07:33N 29°47' W 092°11'5 5.1
2016-Jun-18 06:33N 29°43' W 092°15'2713.4
2016-Jun-18 04:31N 29°16' W 092°20'2120.6
2016-Jun-18 03:31N 28°56' W 092°14'2320.7
2016-Jun-18 02:25N 28°33' W 092°10'16 0.6
2016-Jun-17 01:33N 28°49' W 092°15'4718.6
2016-Jun-16 23:03N 29°35' W 092°18'5 9.3
2016-Jun-16 22:33N 29°40' W 092°16'8 8.2
2016-Jun-16 21:33N 29°47' W 092°11'0 0.0
2016-Jun-16 20:33N 29°47' W 092°11'0 0.1
2016-Jun-16 19:33N 29°47' W 092°11'8 7.8
2016-Jun-16 18:33N 29°40' W 092°15'  
Track history (hours):
 
Tides and Currents Weather Stations Pressure Air Temp Water Temp Dewpoint Dewpoint Depression Visibility Wind Speed Wind Dir Waves Ship Positions

M/V Raymond M.

Owner: RM Leasing, Clute, TX. More information available from US FCC via Universal Licensing System and Coast Guard Vessel Documentation Center.

Last reported at 2016-Jun-25 06:33 UTC. Time now 2016-Jun-25 12:26 UTC.
Position N 29°37' W 092°17'.

; draft 2.2 m.

MMSI: 367021170.

Date/timePositionNaut miles runAvg speedWind from/ knotsBaromVisibWave heightAir tempDewpointWater temp
2016-Jun-25 06:33N 29°37' W 092°17'10 9.6
2016-Jun-25 05:33N 29°45' W 092°12'2 1.6
2016-Jun-25 04:33N 29°47' W 092°11'0 0.0
2016-Jun-25 03:33N 29°47' W 092°11'0 0.0
2016-Jun-25 02:33N 29°47' W 092°11'0 0.0
2016-Jun-25 01:33N 29°47' W 092°11'0 0.0
2016-Jun-25 00:33N 29°47' W 092°11'0 0.0
2016-Jun-24 08:33N 29°47' W 092°11'0 0.0
2016-Jun-24 07:33N 29°47' W 092°11'0 0.0
2016-Jun-24 04:33N 29°47' W 092°11'0 0.0
2016-Jun-24 03:33N 29°47' W 092°11'3 2.5
2016-Jun-24 02:33N 29°45' W 092°13'10 9.8
2016-Jun-24 01:33N 29°36' W 092°18'0 0.0
2016-Jun-23 12:29N 29°36' W 092°18'9 9.9
2016-Jun-23 11:33N 29°44' W 092°14'4 3.6
2016-Jun-23 10:33N 29°47' W 092°11'0 0.0
2016-Jun-23 09:34N 29°47' W 092°11'5 5.2
2016-Jun-23 08:34N 29°43' W 092°15'10 9.8
2016-Jun-23 07:33N 29°33' W 092°18'2 0.1
2016-Jun-22 14:20N 29°35' W 092°18'810.1
2016-Jun-22 13:33N 29°43' W 092°15'5 5.1
2016-Jun-22 12:33N 29°47' W 092°11'0 0.1
2016-Jun-22 11:33N 29°47' W 092°11'0 0.0
2016-Jun-22 10:33N 29°47' W 092°11'0 0.0
2016-Jun-22 09:33N 29°47' W 092°11'0 0.0
2016-Jun-22 08:33N 29°47' W 092°11'0 0.0
2016-Jun-22 07:33N 29°47' W 092°11'0 0.0
2016-Jun-22 06:34N 29°47' W 092°11'0 0.0
2016-Jun-22 05:33N 29°47' W 092°11'0 0.0
2016-Jun-22 04:33N 29°47' W 092°11'0 0.0
2016-Jun-22 03:33N 29°47' W 092°11'0 0.0
2016-Jun-22 02:33N 29°47' W 092°11'0 0.0
2016-Jun-22 01:33N 29°47' W 092°11'0 0.0
2016-Jun-22 00:33N 29°47' W 092°11'0 0.0
2016-Jun-21 23:33N 29°47' W 092°11'0 0.0
2016-Jun-21 22:33N 29°47' W 092°11'0 0.0
2016-Jun-21 21:33N 29°47' W 092°11'0 0.3
2016-Jun-21 20:33N 29°47' W 092°11'0 0.0
2016-Jun-21 19:33N 29°47' W 092°11'0 0.0
2016-Jun-21 18:33N 29°47' W 092°11'0 0.1
2016-Jun-21 16:33N 29°47' W 092°11'1212.1
2016-Jun-21 15:33N 29°36' W 092°17'3 0.3
2016-Jun-21 05:33N 29°39' W 092°16'9 9.2
2016-Jun-21 04:33N 29°47' W 092°11'0 0.0
2016-Jun-21 03:33N 29°47' W 092°11'0 0.0
2016-Jun-21 02:33N 29°47' W 092°11'0 0.0
2016-Jun-21 01:33N 29°47' W 092°11'0 0.0
2016-Jun-21 00:33N 29°47' W 092°11'0 0.0
2016-Jun-20 23:33N 29°47' W 092°11'0 0.0
2016-Jun-20 22:33N 29°47' W 092°11'0 0.0
2016-Jun-20 21:30N 29°47' W 092°11'7 7.6
2016-Jun-20 20:33N 29°41' W 092°15'8 0.5
2016-Jun-20 03:29N 29°33' W 092°18'910.2
2016-Jun-20 02:33N 29°42' W 092°15'6 6.1
2016-Jun-20 01:33N 29°47' W 092°11'3 0.3
2016-Jun-19 17:33N 29°45' W 092°13'1010.0
2016-Jun-19 16:33N 29°36' W 092°18'0 0.0
2016-Jun-18 21:13N 29°35' W 092°18'710.0
2016-Jun-18 20:33N 29°41' W 092°15'6 6.3
2016-Jun-18 19:33N 29°47' W 092°11'0 0.0
2016-Jun-18 18:33N 29°47' W 092°11'0 0.0
2016-Jun-18 17:34N 29°47' W 092°11'0 0.0
2016-Jun-18 16:33N 29°47' W 092°11'0 0.0
2016-Jun-18 15:33N 29°47' W 092°11'0 0.0
2016-Jun-18 14:33N 29°47' W 092°11'0 0.2
2016-Jun-18 13:33N 29°47' W 092°11'0 0.0
2016-Jun-18 12:34N 29°47' W 092°11'0 0.0
2016-Jun-18 11:33N 29°47' W 092°11'0 0.0
2016-Jun-18 10:33N 29°47' W 092°11'0 0.0
2016-Jun-18 09:32N 29°47' W 092°11'0 0.2
2016-Jun-18 08:33N 29°47' W 092°11'0 0.0
2016-Jun-18 07:33N 29°47' W 092°11'5 5.1
2016-Jun-18 06:33N 29°43' W 092°15'2713.4
2016-Jun-18 04:31N 29°16' W 092°20'2120.6
2016-Jun-18 03:31N 28°56' W 092°14'2320.7
2016-Jun-18 02:25N 28°33' W 092°10'16 0.6
2016-Jun-17 01:33N 28°49' W 092°15'4718.6
2016-Jun-16 23:03N 29°35' W 092°18'5 9.3
2016-Jun-16 22:33N 29°40' W 092°16'8 8.2
2016-Jun-16 21:33N 29°47' W 092°11'0 0.0
2016-Jun-16 20:33N 29°47' W 092°11'0 0.1
2016-Jun-16 19:33N 29°47' W 092°11'8 7.8
2016-Jun-16 18:33N 29°40' W 092°15'  

Dump ship's entire track history